This is the latest recevied weather packets stored in our database for station/object BMCB-1. If no packets are shown the sender has not sent any weather packets the latest 10 day(s).
| Time | Temp. | Humidity | Pressure | Rain* | Wind** | Luminosity | Snow |
|---|---|---|---|---|---|---|---|
| 1777503023 | 10.56° C | 44% | 1029 hPa | 0 mm | - | 0 W/m² | - |
| 1777488622 | 15.56° C | 35% | 1026.4 hPa | 0 mm | - | 6 W/m² | - |
| 1777482022 | 18.33° C | 31% | 1025.3 hPa | 0 mm | - | 36 W/m² | - |
| 1777480230 | 18.33° C | 30% | 1025.3 hPa | 0 mm | - | 44 W/m² | - |
| 1777472422 | 19.44° C | 36% | 1025.3 hPa | 0 mm | - | 622 W/m² | - |
| 1777468821 | 19.44° C | 37% | 1025.4 hPa | 0 mm | - | 718 W/m² | - |
| 1777464024 | 18.33° C | 38% | 1025.9 hPa | 0 mm | - | 778 W/m² | - |
| 1777459821 | 17.22° C | 41% | 1026.2 hPa | 0 mm | - | 760 W/m² | - |
| 1777459222 | 16.67° C | 41% | 1026.3 hPa | 0 mm | - | 754 W/m² | - |
| 1777450843 | 12.22° C | 49% | 1026.6 hPa | 0 mm | - | 520 W/m² | - |
| 1777444831 | 9.44° C | 55% | 1026.7 hPa | 0 mm | - | 252 W/m² | - |
| 1777434022 | 7.22° C | 71% | 1026.3 hPa | 0 mm | - | 0 W/m² | - |
| 1777432221 | 7.22° C | 69% | 1026.1 hPa | 0 mm | - | 0 W/m² | - |
| 1777429223 | 8.89° C | 63% | 1025.6 hPa | 0 mm | - | 0 W/m² | - |
| 1777425623 | 9.44° C | 64% | 1025.6 hPa | 0 mm | - | 0 W/m² | - |
| 1777420823 | 10.56° C | 60% | 1025.4 hPa | 0 mm | - | 0 W/m² | - |
| 1777420245 | 11.11° C | 59% | 1025.4 hPa | 0 mm | - | 0 W/m² | - |
| 1777417824 | 11.67° C | 57% | 1025.1 hPa | 0 mm | - | 0 W/m² | - |
| 1777415424 | 12.22° C | 56% | 1024.8 hPa | 0 mm | - | 0 W/m² | - |
| 1777414845 | 12.22° C | 56% | 1024.8 hPa | 0 mm | - | 0 W/m² | - |
| 1777413044 | 12.78° C | 54% | 1024.7 hPa | 0 mm | - | 0 W/m² | - |
| 1777410044 | 13.33° C | 52% | 1024.4 hPa | 0 mm | - | 0 W/m² | - |
| 1777407049 | 14.44° C | 49% | 1024 hPa | 0 mm | - | 0 W/m² | - |
| 1777406448 | 14.44° C | 48% | 1023.9 hPa | 0 mm | - | 0 W/m² | - |
| 1777403439 | 15° C | 49% | 1023.1 hPa | 0 mm | - | 0 W/m² | - |
* Rain latest hour (hover to see other rain measurements)
** Current wind speed in m/s (hover to see current wind gust speed)